Time;durP1;ratioP1;P1;durP2;ratioP2;P2;SDS_P1;SDS_P2;PMS_P1;PMS_P2;Temp;Humidity;BMP_temperature;BMP_pressure;BME280_temperature;BME280_humidity;BME280_pressure;Samples;Min_cycle;Max_cycle;Signal;HPM_P1;HPM_P2
2022/07/10 00:01:26;;;;;;;5.60;3.22;;;;;;;14.68;100.00;97182.44;5032602;28;20080;-67
2022/07/10 00:03:52;;;;;;;4.93;2.97;;;;;;;14.70;100.00;97174.59;5033702;28;20478;-68
2022/07/10 00:06:17;;;;;;;3.80;2.83;;;;;;;14.74;100.00;97178.16;5034402;28;20036;-69
2022/07/10 00:08:42;;;;;;;5.68;2.72;;;;;;;14.88;100.00;97166.44;5038317;28;20456;-67
2022/07/10 00:11:09;;;;;;;6.82;3.03;;;;;;;15.03;100.00;97168.09;5032308;28;20056;-67
2022/07/10 00:13:34;;;;;;;5.63;2.83;;;;;;;15.18;100.00;97169.00;5031080;28;20033;-68
2022/07/10 00:16:01;;;;;;;5.82;3.05;;;;;;;15.34;100.00;97165.13;5031879;28;20167;-67
2022/07/10 00:18:28;;;;;;;3.70;2.45;;;;;;;15.55;100.00;97162.47;5029654;28;20056;-67
2022/07/10 00:20:53;;;;;;;5.40;2.33;;;;;;;15.89;100.00;97161.44;5038399;28;20113;-66
2022/07/10 00:23:19;;;;;;;6.00;2.28;;;;;;;16.04;100.00;97165.78;5014960;28;20049;-66
2022/07/10 00:25:44;;;;;;;4.50;2.40;;;;;;;16.18;100.00;97160.28;5010856;28;20053;-68
2022/07/10 00:28:11;;;;;;;5.68;2.63;;;;;;;16.36;100.00;97156.78;5012010;28;20033;-67
2022/07/10 00:30:37;;;;;;;5.13;2.40;;;;;;;16.46;100.00;97167.06;5046568;28;20033;-67
2022/07/10 00:33:03;;;;;;;5.32;2.40;;;;;;;16.54;100.00;97167.84;5031001;28;20494;-67
2022/07/10 00:35:28;;;;;;;3.05;2.13;;;;;;;16.64;100.00;97161.53;5031855;28;20532;-65
2022/07/10 00:37:54;;;;;;;4.13;2.33;;;;;;;16.53;100.00;97169.00;5017743;28;20029;-67
2022/07/10 00:40:19;;;;;;;4.32;2.42;;;;;;;16.49;100.00;97173.75;5034011;28;20477;-66
2022/07/10 00:42:45;;;;;;;3.97;2.72;;;;;;;16.44;100.00;97189.56;5051404;28;20036;-67
2022/07/10 00:45:11;;;;;;;5.03;2.40;;;;;;;16.55;100.00;97199.84;5051454;28;20044;-66
2022/07/10 00:47:36;;;;;;;4.13;2.13;;;;;;;16.20;100.00;97193.06;5051064;28;20037;-66
2022/07/10 00:50:02;;;;;;;6.68;2.80;;;;;;;16.08;100.00;97191.47;5051372;28;20374;-66
2022/07/10 00:52:28;;;;;;;8.32;3.38;;;;;;;16.17;100.00;97180.03;5051377;28;20033;-65
2022/07/10 00:54:54;;;;;;;3.75;2.30;;;;;;;15.85;100.00;97187.06;5052043;28;20133;-66
2022/07/10 00:57:21;;;;;;;12.82;3.17;;;;;;;15.28;100.00;97198.59;5033680;28;20389;-66
2022/07/10 00:59:48;;;;;;;8.50;2.90;;;;;;;15.56;100.00;97197.19;5034118;28;20037;-65
2022/07/10 01:02:15;;;;;;;4.47;2.80;;;;;;;15.74;100.00;97190.94;5051262;28;20025;-66
2022/07/10 01:04:41;;;;;;;6.38;2.83;;;;;;;15.93;100.00;97185.09;5051497;28;20112;-66
2022/07/10 01:07:07;;;;;;;5.70;2.63;;;;;;;15.95;100.00;97181.97;5033604;28;20040;-67
2022/07/10 01:09:33;;;;;;;5.80;2.30;;;;;;;16.01;100.00;97178.44;5017814;28;20504;-68
2022/07/10 01:12:03;;;;;;;5.60;2.20;;;;;;;16.12;100.00;97175.69;5052017;23;20493;-67
2022/07/10 01:14:30;;;;;;;5.60;2.75;;;;;;;16.22;100.00;97176.88;5032490;28;20041;-66
2022/07/10 01:16:56;;;;;;;4.20;2.00;;;;;;;16.15;100.00;97180.44;5031878;28;20029;-67
2022/07/10 01:19:21;;;;;;;5.07;2.55;;;;;;;16.15;100.00;97176.88;5022124;28;20049;-66
2022/07/10 01:21:47;;;;;;;6.13;3.25;;;;;;;16.27;100.00;97170.97;5011698;28;20049;-66
2022/07/10 01:24:12;;;;;;;5.03;2.53;;;;;;;16.41;100.00;97173.75;5011350;28;20394;-67
2022/07/10 01:26:41;;;;;;;7.05;2.47;;;;;;;16.45;100.00;97165.47;5011118;28;20120;-67
2022/07/10 01:29:07;;;;;;;4.43;3.00;;;;;;;16.35;100.00;97167.03;5011083;28;20026;-68
2022/07/10 01:31:33;;;;;;;4.30;2.60;;;;;;;16.52;100.00;97173.75;5010981;28;20033;-69
2022/07/10 01:34:01;;;;;;;5.55;3.35;;;;;;;16.58;100.00;97163.91;5011110;28;20470;-68
2022/07/10 01:36:29;;;;;;;6.13;3.63;;;;;;;16.65;100.00;97160.31;5010578;28;20221;-66
2022/07/10 01:38:56;;;;;;;11.90;3.30;;;;;;;16.68;100.00;97169.81;5011014;28;20104;-68
2022/07/10 01:41:22;;;;;;;7.53;3.72;;;;;;;16.75;100.00;97178.13;5010819;28;20034;-67
2022/07/10 01:43:48;;;;;;;7.00;3.47;;;;;;;16.73;100.00;97174.97;5024937;28;20041;-67
2022/07/10 01:46:15;;;;;;;5.18;3.10;;;;;;;16.66;100.00;97170.22;5033697;28;20133;-67
2022/07/10 01:48:40;;;;;;;6.72;3.50;;;;;;;16.62;100.00;97172.19;5032872;28;20029;-67
2022/07/10 01:51:07;;;;;;;5.57;3.15;;;;;;;16.58;100.00;97174.97;5034249;28;20035;-67
2022/07/10 01:53:32;;;;;;;4.93;3.28;;;;;;;16.65;100.00;97176.91;5034131;28;20067;-67
2022/07/10 01:56:01;;;;;;;5.90;3.67;;;;;;;16.58;100.00;97171.38;5034018;28;20528;-67
2022/07/10 01:58:26;;;;;;;7.47;3.35;;;;;;;16.62;100.00;97172.19;5034054;28;20060;-67
2022/07/10 02:00:52;;;;;;;5.32;3.08;;;;;;;16.52;100.00;97168.22;5032261;28;20021;-67
2022/07/10 02:06:01;;;;;;;6.05;3.00;;;;;;;16.39;100.00;97172.56;5021472;28;20600;-69
2022/07/10 02:08:26;;;;;;;10.75;3.40;;;;;;;16.36;100.00;97176.13;5014203;28;20065;-68
2022/07/10 02:10:52;;;;;;;6.53;3.53;;;;;;;16.36;100.00;97187.19;4996125;28;20030;-67
2022/07/10 02:13:20;;;;;;;5.38;3.40;;;;;;;16.27;100.00;97178.47;5027199;28;20091;-66
2022/07/10 02:15:49;;;;;;;6.65;3.35;;;;;;;16.25;100.00;97178.88;5023575;28;20333;-66
2022/07/10 02:18:15;;;;;;;6.55;2.92;;;;;;;16.26;100.00;97183.22;5017312;28;20445;-66
2022/07/10 02:20:40;;;;;;;8.05;3.67;;;;;;;16.16;100.00;97175.69;5014717;28;20069;-68
2022/07/10 02:23:06;;;;;;;7.13;3.47;;;;;;;16.12;100.00;97186.75;5014587;28;20038;-68
2022/07/10 02:25:33;;;;;;;4.95;3.55;;;;;;;16.20;100.00;97182.81;5027490;28;20045;-68
2022/07/10 02:27:58;;;;;;;5.65;3.50;;;;;;;16.10;100.00;97182.78;5034831;28;20057;-66
2022/07/10 02:30:24;;;;;;;9.38;3.47;;;;;;;16.04;100.00;97190.66;5025143;28;20119;-66
2022/07/10 02:32:49;;;;;;;5.90;3.50;;;;;;;16.02;100.00;97185.53;5032660;28;20037;-66
2022/07/10 02:35:14;;;;;;;5.32;3.67;;;;;;;15.96;100.00;97194.59;5023972;28;20042;-70
2022/07/10 02:37:40;;;;;;;5.18;3.35;;;;;;;15.95;100.00;97191.03;5021262;28;20474;-67
2022/07/10 02:40:07;;;;;;;7.32;3.47;;;;;;;16.14;100.00;97189.13;5015805;28;20034;-66
2022/07/10 02:42:32;;;;;;;6.57;3.50;;;;;;;16.25;100.00;97189.94;5015930;28;20623;-66
2022/07/10 02:44:57;;;;;;;6.53;3.47;;;;;;;16.15;100.00;97182.41;5041214;28;20042;-67
2022/07/10 02:47:23;;;;;;;8.25;3.10;;;;;;;16.15;100.00;97185.97;5029772;28;20080;-67
2022/07/10 02:49:48;;;;;;;5.32;3.55;;;;;;;16.00;100.00;97182.38;5023121;28;20054;-68
2022/07/10 02:52:13;;;;;;;6.50;3.40;;;;;;;16.01;100.00;97186.72;5020983;28;20029;-68
2022/07/10 02:54:39;;;;;;;7.13;3.80;;;;;;;16.05;100.00;97186.72;5013939;28;20108;-67
2022/07/10 02:57:04;;;;;;;7.80;3.65;;;;;;;16.17;100.00;97185.56;5014620;28;20064;-67
2022/07/10 02:59:30;;;;;;;4.22;3.00;;;;;;;16.23;100.00;97184.78;5017785;28;20104;-67
2022/07/10 03:01:56;;;;;;;5.10;3.40;;;;;;;16.47;100.00;97193.50;5022084;28;20430;-68
2022/07/10 03:04:21;;;;;;;7.55;3.30;;;;;;;16.62;100.00;97197.09;5013600;28;20037;-67
2022/07/10 03:06:46;;;;;;;6.47;3.58;;;;;;;16.49;100.00;97201.41;5019338;28;20033;-67
2022/07/10 03:09:12;;;;;;;6.43;3.38;;;;;;;16.35;100.00;97204.94;5017034;28;20049;-67
2022/07/10 03:11:37;;;;;;;6.20;3.50;;;;;;;16.33;100.00;97202.59;5013013;28;20037;-67
2022/07/10 03:14:02;;;;;;;8.35;3.17;;;;;;;16.39;100.00;97203.78;5017458;28;20064;-67
2022/07/10 03:16:28;;;;;;;4.22;3.35;;;;;;;16.48;100.00;97208.13;5021973;28;20045;-67
2022/07/10 03:18:53;;;;;;;4.65;2.70;;;;;;;16.62;100.00;97217.22;5015223;28;20042;-67
2022/07/10 03:21:18;;;;;;;4.32;2.90;;;;;;;16.71;100.00;97213.25;5024070;28;20033;-67
2022/07/10 03:23:44;;;;;;;7.47;3.10;;;;;;;16.76;100.00;97215.66;5013215;28;20507;-67
2022/07/10 03:26:09;;;;;;;3.95;2.75;;;;;;;16.78;100.00;97216.84;5012843;28;20106;-67
2022/07/10 03:28:35;;;;;;;5.35;3.13;;;;;;;16.75;100.00;97214.09;5018069;28;20128;-67
2022/07/10 03:31:02;;;;;;;3.60;2.45;;;;;;;16.75;100.00;97214.88;5024737;28;20048;-67
2022/07/10 03:33:27;;;;;;;3.67;2.70;;;;;;;16.85;100.00;97215.28;5022289;28;20044;-67
2022/07/10 03:35:53;;;;;;;6.00;2.63;;;;;;;16.96;100.00;97210.53;5048647;28;20029;-68
2022/07/10 03:38:18;;;;;;;4.35;2.72;;;;;;;16.97;100.00;97221.19;5050709;28;20026;-67
2022/07/10 03:40:47;;;;;;;5.88;3.05;;;;;;;17.02;100.00;97227.53;5029153;28;20034;-67
2022/07/10 03:43:13;;;;;;;4.03;2.80;;;;;;;17.09;100.00;97222.78;5024254;28;20482;-67
2022/07/10 03:45:38;;;;;;;8.13;3.00;;;;;;;16.99;100.00;97221.59;5028171;28;20109;-67
2022/07/10 03:48:04;;;;;;;5.45;2.80;;;;;;;16.90;100.00;97220.41;5033559;28;20029;-67
2022/07/10 03:50:29;;;;;;;4.65;3.15;;;;;;;16.55;100.00;97228.28;5051090;28;20034;-68
2022/07/10 03:52:55;;;;;;;7.35;3.40;;;;;;;16.66;100.00;97222.75;5049800;28;20060;-67
2022/07/10 03:55:20;;;;;;;4.45;2.72;;;;;;;16.75;100.00;97223.16;5050573;28;20112;-67
2022/07/10 03:57:55;;;;;;;4.88;3.15;;;;;;;16.67;100.00;97223.53;5042359;28;20455;-67
2022/07/10 04:00:25;;;;;;;6.45;3.38;;;;;;;16.60;100.00;97216.84;5021913;28;20494;-65
2022/07/10 04:02:58;;;;;;;6.97;2.80;;;;;;;16.66;100.00;97219.22;5019968;28;20096;-66
2022/07/10 04:05:25;;;;;;;4.38;3.17;;;;;;;16.75;100.00;97216.84;5019965;28;20116;-67
2022/07/10 04:07:51;;;;;;;4.07;2.97;;;;;;;16.76;100.00;97216.47;5018539;28;20390;-67
2022/07/10 04:10:17;;;;;;;4.70;3.47;;;;;;;16.13;100.00;97209.63;5037134;28;20048;-66
2022/07/10 04:12:43;;;;;;;5.00;3.65;;;;;;;16.02;100.00;97217.91;5032640;28;20033;-67
2022/07/10 04:15:09;;;;;;;5.15;3.40;;;;;;;16.10;100.00;97218.69;5025545;28;20414;-66
2022/07/10 04:17:34;;;;;;;4.63;3.28;;;;;;;16.26;100.00;97219.16;5024583;28;20132;-66
2022/07/10 04:20:00;;;;;;;5.78;3.22;;;;;;;16.33;100.00;97207.31;5025798;28;20029;-67
2022/07/10 04:22:27;;;;;;;11.00;3.67;;;;;;;16.28;100.00;97204.91;5015744;28;20026;-67
2022/07/10 04:24:55;;;;;;;4.95;3.50;;;;;;;16.27;100.00;97209.66;5013682;28;20486;-68
2022/07/10 04:27:21;;;;;;;6.60;4.07;;;;;;;15.79;100.00;97218.19;5028081;28;20034;-67
2022/07/10 04:29:47;;;;;;;5.05;3.80;;;;;;;15.76;100.00;97213.47;5017509;28;20040;-67
2022/07/10 04:32:13;;;;;;;7.10;4.28;;;;;;;15.64;100.00;97217.31;5045173;28;20091;-68
2022/07/10 04:34:39;;;;;;;9.30;3.85;;;;;;;15.46;100.00;97220.78;5034359;28;20029;-67
2022/07/10 04:37:05;;;;;;;8.80;4.15;;;;;;;15.61;100.00;97223.63;5034151;28;20033;-68
2022/07/10 04:39:30;;;;;;;5.35;3.55;;;;;;;15.78;100.00;97231.22;5034938;28;20036;-68
2022/07/10 04:41:56;;;;;;;6.00;3.40;;;;;;;16.10;100.00;97229.75;5022719;28;20406;-68
2022/07/10 04:44:21;;;;;;;5.40;3.00;;;;;;;16.36;100.00;97234.16;5030831;28;20405;-68
2022/07/10 04:46:47;;;;;;;6.43;3.28;;;;;;;16.53;100.00;97230.66;5025841;28;20104;-69
2022/07/10 04:49:13;;;;;;;7.22;3.30;;;;;;;16.61;100.00;97228.69;5032741;28;20037;-67
2022/07/10 04:51:38;;;;;;;4.50;2.90;;;;;;;16.73;100.00;97230.28;5031563;28;20029;-67
2022/07/10 04:54:04;;;;;;;3.22;2.70;;;;;;;16.79;100.00;97221.19;5032441;28;20533;-67
2022/07/10 04:56:29;;;;;;;7.05;3.00;;;;;;;16.90;100.00;97223.97;5031012;28;20393;-66
2022/07/10 04:58:54;;;;;;;5.45;3.10;;;;;;;16.93;100.00;97214.09;5033077;28;20033;-68
2022/07/10 05:01:20;;;;;;;6.63;4.07;;;;;;;16.75;100.00;97225.94;5030590;28;20106;-67
2022/07/10 05:03:45;;;;;;;5.95;3.53;;;;;;;16.58;100.00;97227.50;5034684;28;20037;-68
2022/07/10 05:06:11;;;;;;;5.03;3.72;;;;;;;16.73;100.00;97231.06;5013303;28;20092;-68
2022/07/10 05:08:36;;;;;;;7.15;3.90;;;;;;;16.94;100.00;97229.50;5014041;28;20033;-67
2022/07/10 05:11:02;;;;;;;4.35;3.20;;;;;;;17.03;100.00;97234.66;5042112;28;20029;-69
2022/07/10 05:13:27;;;;;;;6.70;3.30;;;;;;;17.23;100.00;97240.56;5041037;28;20038;-68
2022/07/10 05:15:52;;;;;;;4.70;3.40;;;;;;;17.06;100.00;97231.88;5030056;28;20049;-67
2022/07/10 05:18:18;;;;;;;3.58;2.97;;;;;;;17.16;100.00;97233.84;5026314;28;20435;-65
2022/07/10 05:20:44;;;;;;;4.97;3.40;;;;;;;17.41;100.00;97232.22;5017242;28;20058;-67
2022/07/10 05:23:11;;;;;;;6.28;2.95;;;;;;;17.79;100.00;97233.31;5017966;28;20456;-66
2022/07/10 05:25:37;;;;;;;6.70;2.95;;;;;;;17.72;100.00;97227.78;5026451;28;20029;-67
2022/07/10 05:28:05;;;;;;;5.80;3.58;;;;;;;17.53;100.00;97231.78;5016775;28;20030;-68
2022/07/10 05:30:32;;;;;;;5.53;2.67;;;;;;;18.04;100.00;97240.75;5019764;28;20040;-67
2022/07/10 05:32:57;;;;;;;5.22;3.35;;;;;;;18.44;100.00;97238.53;5030568;28;20025;-67
2022/07/10 05:35:22;;;;;;;6.93;2.92;;;;;;;18.77;100.00;97239.91;5035852;28;20043;-67
2022/07/10 05:37:48;;;;;;;6.97;2.67;;;;;;;18.99;95.59;97246.09;5035920;28;20053;-68
2022/07/10 05:40:13;;;;;;;6.22;2.90;;;;;;;19.17;91.42;97243.19;5029963;28;20057;-68
2022/07/10 05:42:39;;;;;;;5.10;2.63;;;;;;;19.16;91.25;97241.63;5015693;28;20033;-65
2022/07/10 05:45:06;;;;;;;3.75;2.90;;;;;;;19.09;91.95;97250.00;5030996;28;20129;-68
2022/07/10 05:47:33;;;;;;;4.70;2.50;;;;;;;18.81;90.33;97251.78;5033944;28;20040;-66
2022/07/10 05:49:58;;;;;;;4.70;2.80;;;;;;;18.37;94.21;97252.47;5038344;28;20623;-66
2022/07/10 05:52:24;;;;;;;9.30;2.85;;;;;;;18.37;93.01;97261.56;5033722;28;20104;-67
2022/07/10 05:54:50;;;;;;;3.83;2.88;;;;;;;18.60;93.08;97260.25;5025094;28;20042;-69
2022/07/10 05:57:16;;;;;;;5.63;3.13;;;;;;;17.85;95.52;97259.44;5022749;28;20041;-66
2022/07/10 05:59:42;;;;;;;4.13;2.72;;;;;;;17.39;97.37;97250.03;5014805;28;20033;-67
2022/07/10 06:02:07;;;;;;;8.35;3.03;;;;;;;17.38;100.00;97255.97;5014605;28;20035;-67
2022/07/10 06:04:33;;;;;;;3.97;2.42;;;;;;;17.77;98.94;97257.84;5024397;28;20033;-68
2022/07/10 06:06:59;;;;;;;4.78;2.75;;;;;;;17.92;98.13;97253.09;5048863;28;20099;-68
2022/07/10 06:09:24;;;;;;;7.30;3.08;;;;;;;17.91;97.66;97257.81;5025634;28;20029;-68
2022/07/10 06:11:49;;;;;;;4.88;2.72;;;;;;;19.01;91.00;97254.81;5037169;28;20034;-69
2022/07/10 06:14:15;;;;;;;4.68;2.67;;;;;;;19.85;84.78;97255.63;5037227;28;20030;-67
2022/07/10 06:16:40;;;;;;;6.90;2.90;;;;;;;18.62;87.92;97253.09;5039065;28;20103;-67
2022/07/10 06:19:06;;;;;;;4.10;2.35;;;;;;;20.25;81.94;97253.91;5037241;28;20033;-66
2022/07/10 06:21:31;;;;;;;4.57;2.47;;;;;;;19.06;83.85;97251.59;5029005;28;20042;-67
2022/07/10 06:23:57;;;;;;;4.55;2.53;;;;;;;18.81;87.12;97251.00;5023382;28;20033;-67
2022/07/10 06:26:22;;;;;;;4.13;2.55;;;;;;;19.97;81.50;97257.06;5016939;28;20475;-68
2022/07/10 06:28:48;;;;;;;3.80;2.30;;;;;;;20.88;76.40;97246.31;5026435;28;20043;-68
2022/07/10 06:31:13;;;;;;;3.95;2.10;;;;;;;21.38;72.29;97249.03;5024221;28;20030;-68
2022/07/10 06:33:39;;;;;;;4.32;2.10;;;;;;;22.07;70.39;97256.13;5017863;28;20052;-68
2022/07/10 06:36:05;;;;;;;3.97;1.88;;;;;;;23.46;66.28;97251.34;5024783;28;20460;-68
2022/07/10 06:38:31;;;;;;;5.38;2.05;;;;;;;24.61;57.81;97251.75;5029330;28;20033;-68
2022/07/10 06:40:56;;;;;;;4.88;1.60;;;;;;;26.74;50.21;97261.25;5024429;28;20060;-67
2022/07/10 06:43:21;;;;;;;7.32;1.90;;;;;;;26.26;50.36;97253.81;5030540;28;20041;-66
2022/07/10 06:45:47;;;;;;;3.10;1.58;;;;;;;27.00;46.01;97254.16;5025750;28;20048;-68
2022/07/10 06:48:13;;;;;;;4.88;2.03;;;;;;;26.74;47.73;97259.25;5028039;28;20041;-66
2022/07/10 06:50:39;;;;;;;5.65;2.10;;;;;;;25.49;48.65;97256.94;5035651;28;20037;-69
2022/07/10 06:53:05;;;;;;;3.58;1.95;;;;;;;22.42;58.63;97264.97;5015210;28;20042;-69
2022/07/10 06:55:31;;;;;;;3.40;1.92;;;;;;;21.19;67.27;97256.13;5012083;28;20092;-67
2022/07/10 06:57:57;;;;;;;4.68;2.72;;;;;;;21.83;65.28;97259.00;5004569;28;20125;-66
2022/07/10 07:00:22;;;;;;;4.15;2.55;;;;;;;20.16;71.51;97258.44;4999335;28;20584;-67
2022/07/10 07:02:48;;;;;;;4.38;2.97;;;;;;;19.71;74.65;97259.31;5004599;28;20042;-67
2022/07/10 07:05:14;;;;;;;6.43;2.22;;;;;;;19.91;76.21;97262.28;4996889;28;20099;-68
2022/07/10 07:07:39;;;;;;;4.72;2.60;;;;;;;20.14;75.03;97253.28;5010088;28;20427;-67
2022/07/10 07:10:06;;;;;;;5.55;2.60;;;;;;;20.56;73.26;97256.69;4999167;28;20041;-67
2022/07/10 07:12:32;;;;;;;5.82;2.70;;;;;;;21.18;69.65;97257.34;5010286;28;20057;-67
2022/07/10 07:14:57;;;;;;;6.97;2.63;;;;;;;21.17;68.64;97252.97;5011304;28;20042;-68
2022/07/10 07:17:25;;;;;;;3.60;2.40;;;;;;;19.57;74.67;97263.06;4997317;28;20627;-66
2022/07/10 07:25:21;;;;;;;7.88;3.58;;;;;;;19.67;72.88;97259.34;5018118;28;20041;-67
2022/07/10 07:27:46;;;;;;;4.88;3.58;;;;;;;18.98;76.27;97258.44;5021589;28;20390;-65
2022/07/10 07:30:16;;;;;;;4.63;2.75;;;;;;;19.43;78.08;97268.75;5018479;28;20083;-66
2022/07/10 07:32:43;;;;;;;5.47;3.63;;;;;;;20.19;75.23;97268.72;5021218;28;20049;-68
2022/07/10 07:35:11;;;;;;;4.45;3.20;;;;;;;19.83;73.46;97267.16;4990125;28;20502;-68
2022/07/10 07:37:47;;;;;;;9.80;5.88;;;;;;;19.20;77.24;97261.03;5016481;28;20049;-67
2022/07/10 07:40:15;;;;;;;8.80;5.18;;;;;;;19.62;76.99;97267.34;4998577;28;20037;-67
2022/07/10 07:42:41;;;;;;;4.57;3.08;;;;;;;19.60;75.36;97259.44;5003790;28;20096;-67
2022/07/10 07:45:08;;;;;;;8.32;3.65;;;;;;;20.57;72.68;97274.19;4989713;28;20398;-67
2022/07/10 07:47:47;;;;;;;5.50;2.95;;;;;;;21.31;66.14;97270.66;5017503;28;20045;-67
2022/07/10 07:50:14;;;;;;;6.28;3.20;;;;;;;21.56;64.57;97273.81;5008147;28;20386;-66
2022/07/10 07:52:40;;;;;;;5.22;2.92;;;;;;;21.74;64.43;97272.72;5020054;28;20045;-67
2022/07/10 07:55:07;;;;;;;7.18;2.97;;;;;;;22.13;63.47;97274.72;5017139;28;20045;-66
2022/07/10 07:57:32;;;;;;;5.80;3.20;;;;;;;22.43;61.30;97278.50;5014861;28;20069;-68
2022/07/10 08:00:00;;;;;;;9.20;2.90;;;;;;;22.66;59.83;97279.63;5008365;28;20092;-67
2022/07/10 08:02:26;;;;;;;5.45;2.90;;;;;;;22.82;59.48;97270.47;4998648;28;20044;-67
2022/07/10 08:04:51;;;;;;;5.07;2.85;;;;;;;23.16;57.23;97263.72;4999546;28;20038;-66
2022/07/10 08:07:17;;;;;;;6.30;3.10;;;;;;;22.50;59.36;97272.75;4993030;28;20041;-67
2022/07/10 08:09:44;;;;;;;5.03;2.40;;;;;;;22.48;60.93;97275.22;5003445;28;20561;-66
2022/07/10 08:12:10;;;;;;;5.40;3.05;;;;;;;22.86;58.72;97273.97;5001572;28;20091;-67
2022/07/10 08:14:35;;;;;;;5.45;3.15;;;;;;;22.68;58.78;97269.56;5011184;28;20501;-65
2022/07/10 08:17:01;;;;;;;6.95;2.90;;;;;;;22.41;59.31;97269.78;4992108;28;20053;-65
2022/07/10 08:19:27;;;;;;;3.78;2.65;;;;;;;22.21;61.05;97263.41;4994526;28;20052;-65
2022/07/10 08:21:52;;;;;;;3.92;2.78;;;;;;;20.33;66.99;97264.94;5008533;28;20390;-67
2022/07/10 08:24:18;;;;;;;5.53;2.70;;;;;;;20.67;69.61;97267.72;5007837;28;20069;-67
2022/07/10 08:26:44;;;;;;;6.00;3.33;;;;;;;20.40;69.02;97262.06;5007648;28;20065;-66
2022/07/10 08:29:10;;;;;;;4.25;3.03;;;;;;;21.38;66.21;97268.53;4997622;28;20749;-66
2022/07/10 08:31:35;;;;;;;4.30;2.70;;;;;;;22.79;59.37;97262.97;5001108;28;20133;-66
2022/07/10 08:34:01;;;;;;;8.20;3.03;;;;;;;23.29;56.29;97264.56;5003458;28;20042;-66
2022/07/10 08:36:26;;;;;;;5.38;2.70;;;;;;;23.17;56.63;97263.25;4999166;28;20100;-66
2022/07/10 08:38:54;;;;;;;5.95;2.65;;;;;;;24.94;51.59;97256.34;5008778;28;20049;-66
2022/07/10 08:41:24;;;;;;;3.95;2.00;;;;;;;25.64;49.56;97253.63;5014884;28;20114;-65
2022/07/10 08:43:50;;;;;;;3.97;2.50;;;;;;;26.20;47.18;97249.22;5016603;28;20049;-66
2022/07/10 08:46:18;;;;;;;4.40;2.28;;;;;;;27.01;45.33;97255.75;4985003;28;20042;-66
2022/07/10 08:48:47;;;;;;;3.85;2.28;;;;;;;26.76;44.97;97253.94;5000796;28;20042;-66
2022/07/10 08:51:20;;;;;;;4.80;2.45;;;;;;;25.14;48.98;97254.06;4997308;28;20034;-67
2022/07/10 08:53:49;;;;;;;3.35;2.35;;;;;;;26.04;46.72;97248.22;5025674;23;20049;-65
2022/07/10 08:56:15;;;;;;;5.97;2.65;;;;;;;25.67;46.80;97249.91;5034937;28;20540;-65
2022/07/10 08:58:41;;;;;;;4.70;2.35;;;;;;;24.71;49.64;97255.44;5043522;28;20045;-65
2022/07/10 09:01:07;;;;;;;3.45;2.25;;;;;;;24.12;51.98;97251.97;5037822;28;20688;-67
2022/07/10 09:03:33;;;;;;;3.17;2.45;;;;;;;23.99;51.72;97251.16;5044251;28;20132;-64
2022/07/10 09:05:58;;;;;;;4.72;2.33;;;;;;;24.17;52.54;97251.44;5042216;28;20040;-65
2022/07/10 09:08:30;;;;;;;4.07;2.83;;;;;;;23.88;52.07;97254.28;5037113;28;20605;-64
2022/07/10 09:11:15;;;;;;;5.50;2.42;;;;;;;23.74;53.24;97252.63;5037631;28;20404;-67
2022/07/10 09:13:53;;;;;;;4.53;2.75;;;;;;;23.35;54.38;97256.44;5043095;28;20432;-65
2022/07/10 09:16:30;;;;;;;3.75;2.75;;;;;;;23.88;51.62;97257.06;5036264;28;20037;-63
2022/07/10 09:18:56;;;;;;;4.00;2.47;;;;;;;25.05;49.82;97258.78;5043927;28;20045;-65
2022/07/10 09:21:22;;;;;;;7.47;3.22;;;;;;;24.54;51.14;97262.38;5036094;28;20068;-66
2022/07/10 09:23:48;;;;;;;4.90;2.90;;;;;;;22.61;55.30;97261.34;5042269;28;20037;-65
2022/07/10 09:26:14;;;;;;;5.53;2.90;;;;;;;22.15;57.94;97263.91;5037205;28;20041;-66
2022/07/10 09:28:39;;;;;;;6.80;2.90;;;;;;;22.36;57.31;97263.94;5043566;28;20043;-66
2022/07/10 09:31:05;;;;;;;5.63;2.80;;;;;;;22.47;57.81;97258.88;5038683;28;20041;-67
2022/07/10 09:33:33;;;;;;;5.85;2.47;;;;;;;23.48;56.13;97257.31;5042270;28;20033;-68
2022/07/10 09:36:16;;;;;;;4.43;2.50;;;;;;;23.89;54.68;97253.03;5042640;28;20480;-66
2022/07/10 09:38:44;;;;;;;4.32;2.42;;;;;;;23.99;52.76;97253.97;5043546;28;20041;-66
2022/07/10 09:41:14;;;;;;;3.15;2.28;;;;;;;24.33;49.73;97256.16;5036541;28;20065;-65
2022/07/10 09:43:45;;;;;;;5.07;2.60;;;;;;;24.05;50.92;97260.56;5043846;28;20036;-66
2022/07/10 09:46:10;;;;;;;8.82;2.83;;;;;;;23.20;51.83;97254.00;5035711;28;20493;-66
2022/07/10 09:48:36;;;;;;;3.83;2.45;;;;;;;22.73;56.72;97259.13;5044619;28;20051;-66
2022/07/10 09:51:02;;;;;;;5.10;3.03;;;;;;;22.89;57.54;97257.13;5039954;28;20091;-67
2022/07/10 09:53:27;;;;;;;6.03;2.80;;;;;;;23.25;57.16;97253.50;5029866;28;20044;-67
2022/07/10 09:55:56;;;;;;;7.90;3.67;;;;;;;23.48;55.80;97248.94;5022903;28;20038;-67
2022/07/10 09:58:31;;;;;;;7.75;3.67;;;;;;;23.56;55.25;97238.34;5019168;28;20788;-66
2022/07/10 10:00:58;;;;;;;4.15;2.65;;;;;;;23.56;55.96;97236.31;5025004;28;20042;-67
2022/07/10 10:03:25;;;;;;;6.55;3.40;;;;;;;23.31;56.71;97236.19;5031369;28;20648;-67
2022/07/10 10:05:54;;;;;;;9.60;6.53;;;;;;;23.52;54.74;97227.25;5031095;28;20040;-67
2022/07/10 10:08:24;;;;;;;3.80;2.85;;;;;;;23.46;53.69;97229.00;5021365;28;20049;-70
2022/07/10 10:10:50;;;;;;;5.57;2.40;;;;;;;23.76;52.89;97224.97;5030445;28;20044;-67
2022/07/10 10:13:21;;;;;;;5.57;2.88;;;;;;;24.12;52.20;97220.41;5023173;28;20045;-68
2022/07/10 10:15:48;;;;;;;5.10;2.65;;;;;;;23.46;54.85;97218.63;5044997;28;20048;-66
2022/07/10 10:18:22;;;;;;;3.40;2.40;;;;;;;24.01;55.03;97218.72;5033365;28;20041;-66
2022/07/10 10:20:48;;;;;;;4.18;2.60;;;;;;;23.60;55.95;97216.66;5031001;28;20135;-66
2022/07/10 10:23:22;;;;;;;4.15;2.67;;;;;;;23.40;55.71;97228.75;5033811;28;20576;-66
2022/07/10 10:25:48;;;;;;;7.93;3.13;;;;;;;22.89;56.66;97231.22;5022802;28;20048;-65
2022/07/10 10:28:16;;;;;;;5.05;2.67;;;;;;;22.99;57.41;97221.00;5022644;28;20564;-65
2022/07/10 10:30:46;;;;;;;5.30;2.65;;;;;;;23.09;57.15;97222.78;5042513;28;20025;-66
2022/07/10 10:33:42;;;;;;;4.38;3.30;;;;;;;23.26;56.90;97227.13;5029148;28;20111;-66
2022/07/10 10:36:09;;;;;;;3.78;2.80;;;;;;;23.11;56.30;97227.94;5042929;28;20041;-67
2022/07/10 10:38:51;;;;;;;5.88;3.45;;;;;;;22.56;57.29;97228.38;5033383;28;20048;-68
2022/07/10 10:41:33;;;;;;;6.63;3.17;;;;;;;22.27;59.49;97219.88;5026828;28;20498;-67
2022/07/10 10:44:15;;;;;;;4.82;2.97;;;;;;;21.87;61.99;97225.47;5027951;28;20141;-64
2022/07/10 10:46:50;;;;;;;4.68;2.88;;;;;;;21.48;62.33;97218.63;5031006;28;20052;-69
2022/07/10 10:49:22;;;;;;;4.65;3.25;;;;;;;21.70;63.39;97222.59;5035548;28;20045;-64
2022/07/10 10:51:57;;;;;;;5.85;3.75;;;;;;;21.63;63.06;97221.97;5036419;28;20072;-65
2022/07/10 10:54:23;;;;;;;7.13;3.08;;;;;;;21.66;62.41;97215.50;5027945;28;20521;-64
2022/07/10 10:57:14;;;;;;;4.47;3.20;;;;;;;21.47;62.64;97222.66;5033474;28;20048;-65
2022/07/10 10:59:55;;;;;;;6.05;3.25;;;;;;;;;;5030852;28;20041;-64
2022/07/10 11:02:32;;;;;;;4.75;3.28;;;;;;;21.67;61.34;97215.09;5026973;28;20049;-64
2022/07/10 11:05:10;;;;;;;6.60;3.38;;;;;;;21.22;63.80;97215.50;5033730;28;20041;-65
2022/07/10 11:07:53;;;;;;;4.57;3.38;;;;;;;21.39;62.54;97210.81;5034231;28;20072;-65
2022/07/10 11:10:32;;;;;;;5.18;3.38;;;;;;;21.41;64.30;97202.03;5025082;28;20037;-65
2022/07/10 11:13:12;;;;;;;3.72;2.75;;;;;;;21.60;63.06;97206.84;5056570;28;20087;-66
2022/07/10 11:15:39;;;;;;;;;;;;;;;21.85;62.44;97205.59;5022109;28;20048;-66
2022/07/10 11:18:06;;;;;;;4.82;2.97;;;;;;;22.06;61.67;97202.34;5017631;28;19913;-69
2022/07/10 11:20:53;;;;;;;6.05;3.00;;;;;;;22.52;58.35;97206.13;5028025;28;20045;-65
2022/07/10 11:23:42;;;;;;;8.75;3.25;;;;;;;23.14;58.21;97208.28;5022356;28;20053;-66
2022/07/10 11:26:11;;;;;;;4.95;3.13;;;;;;;23.18;56.49;97200.59;5027169;28;20049;-65
2022/07/10 11:28:51;;;;;;;5.03;2.65;;;;;;;22.91;57.62;97198.81;5031730;28;20123;-65
2022/07/10 11:31:18;;;;;;;6.72;2.67;;;;;;;23.12;57.07;97193.16;5026891;28;20044;-66
2022/07/10 11:33:46;;;;;;;7.32;3.08;;;;;;;22.84;58.40;97187.84;5032900;28;20453;-67
2022/07/10 11:36:19;;;;;;;3.72;2.60;;;;;;;22.95;57.46;97193.16;5019277;28;20068;-66
2022/07/10 11:38:45;;;;;;;4.85;2.55;;;;;;;23.24;57.37;97184.06;5022200;28;20120;-66